Time;durP1;ratioP1;P1;durP2;ratioP2;P2;SDS_P1;SDS_P2;PMS_P1;PMS_P2;Temp;Humidity;BMP_temperature;BMP_pressure;BME280_temperature;BME280_humidity;BME280_pressure;Samples;Min_cycle;Max_cycle;Signal;HPM_P1;HPM_P2
2023/07/17 00:01:42;;;;;;;;;;;25.30;50.10;;;;;;5059647;28;20278;-52
2023/07/17 00:04:07;;;;;;;;;;;25.30;50.00;;;;;;5059024;28;20380;-53
2023/07/17 00:06:33;;;;;;;;;;;25.40;50.10;;;;;;5057622;28;20657;-52
2023/07/17 00:08:58;;;;;;;;;;;25.40;50.10;;;;;;5062415;28;20031;-52
2023/07/17 00:11:23;;;;;;;;;;;25.40;50.20;;;;;;5063871;28;19908;-51
2023/07/17 00:13:49;;;;;;;;;;;25.40;50.10;;;;;;5065208;28;19916;-52
2023/07/17 00:16:14;;;;;;;;;;;25.40;50.10;;;;;;5058421;28;20257;-52
2023/07/17 00:18:40;;;;;;;;;;;25.40;50.20;;;;;;5052043;28;20319;-52
2023/07/17 00:21:06;;;;;;;;;;;25.40;50.20;;;;;;5059878;28;20407;-52
2023/07/17 00:23:31;;;;;;;;;;;25.40;50.30;;;;;;5056438;28;19916;-52
2023/07/17 00:25:57;;;;;;;;;;;25.40;50.20;;;;;;5056970;28;19917;-52
2023/07/17 00:28:22;;;;;;;;;;;25.30;50.20;;;;;;5054176;28;19921;-52
2023/07/17 00:30:48;;;;;;;;;;;25.40;50.30;;;;;;5054531;28;20027;-52
2023/07/17 00:33:13;;;;;;;;;;;25.40;50.40;;;;;;5053557;28;19917;-52
2023/07/17 00:35:39;;;;;;;;;;;25.30;50.40;;;;;;5057943;28;20620;-52
2023/07/17 00:38:04;;;;;;;;;;;25.30;50.40;;;;;;5054142;28;19924;-52
2023/07/17 00:40:30;;;;;;;;;;;25.30;50.50;;;;;;5060816;28;20041;-52
2023/07/17 00:42:58;;;;;;;;;;;25.20;50.40;;;;;;5056722;28;19962;-52
2023/07/17 00:45:25;;;;;;;;;;;25.30;50.60;;;;;;5051893;28;20015;-51
2023/07/17 00:47:50;;;;;;;;;;;25.30;50.60;;;;;;5057654;28;19979;-52
2023/07/17 00:50:16;;;;;;;;;;;25.30;50.50;;;;;;5065586;28;19909;-52
2023/07/17 00:52:41;;;;;;;;;;;25.30;50.50;;;;;;5054541;28;19920;-52
2023/07/17 00:55:08;;;;;;;;;;;25.30;50.40;;;;;;5074824;28;19923;-52
2023/07/17 00:57:33;;;;;;;;;;;25.30;50.50;;;;;;5052050;28;20038;-52
2023/07/17 00:59:59;;;;;;;;;;;25.30;50.60;;;;;;5058956;28;20360;-52
2023/07/17 01:02:24;;;;;;;;;;;25.30;50.60;;;;;;5049559;28;19924;-52
2023/07/17 01:04:50;;;;;;;;;;;25.30;50.60;;;;;;5051400;28;19913;-51
2023/07/17 01:07:15;;;;;;;;;;;25.30;50.60;;;;;;5047769;28;19913;-52
2023/07/17 01:09:41;;;;;;;;;;;25.30;50.60;;;;;;5051854;28;19948;-52
2023/07/17 01:12:07;;;;;;;;;;;25.30;50.70;;;;;;5050204;28;20003;-52
2023/07/17 01:14:32;;;;;;;;;;;25.30;50.70;;;;;;5053117;28;20449;-52
2023/07/17 01:16:58;;;;;;;;;;;25.30;50.70;;;;;;5057539;28;19908;-52
2023/07/17 01:19:23;;;;;;;;;;;25.30;50.70;;;;;;5055461;28;19970;-52
2023/07/17 01:21:50;;;;;;;;;;;25.30;50.80;;;;;;5049648;28;19924;-51
2023/07/17 01:24:15;;;;;;;;;;;25.30;50.80;;;;;;5057484;28;19939;-52
2023/07/17 01:26:41;;;;;;;;;;;25.30;50.70;;;;;;5057210;28;20289;-52
2023/07/17 01:29:06;;;;;;;;;;;25.30;51.00;;;;;;5052438;28;19960;-51
2023/07/17 01:31:32;;;;;;;;;;;25.30;51.00;;;;;;5051629;28;19913;-52
2023/07/17 01:33:57;;;;;;;;;;;25.30;51.20;;;;;;5053954;28;19966;-52
2023/07/17 01:36:23;;;;;;;;;;;25.30;51.20;;;;;;5052138;28;20260;-52
2023/07/17 01:38:48;;;;;;;;;;;25.30;51.20;;;;;;5053680;28;19947;-52
2023/07/17 01:41:13;;;;;;;;;;;25.30;51.40;;;;;;5054746;28;19920;-52
2023/07/17 01:43:39;;;;;;;;;;;25.30;51.20;;;;;;5053978;28;19916;-52
2023/07/17 01:46:04;;;;;;;;;;;25.20;51.40;;;;;;5050080;28;19931;-52
2023/07/17 01:48:30;;;;;;;;;;;25.20;51.60;;;;;;5052784;28;20043;-52
2023/07/17 01:50:55;;;;;;;;;;;25.20;51.60;;;;;;5058431;28;20411;-51
2023/07/17 01:53:21;;;;;;;;;;;25.20;51.40;;;;;;5055524;28;19920;-52
2023/07/17 01:55:46;;;;;;;;;;;25.20;51.50;;;;;;5054203;28;20024;-52
2023/07/17 01:58:12;;;;;;;;;;;25.20;51.60;;;;;;5057318;28;19921;-54
2023/07/17 02:00:37;;;;;;;;;;;25.20;51.70;;;;;;5052491;28;19982;-52
2023/07/17 02:03:03;;;;;;;;;;;25.20;51.80;;;;;;5055630;28;19921;-52
2023/07/17 02:05:28;;;;;;;;;;;25.20;51.60;;;;;;5056030;28;19920;-52
2023/07/17 02:07:54;;;;;;;;;;;25.20;51.90;;;;;;5055917;28;19920;-52
2023/07/17 02:10:19;;;;;;;;;;;25.20;51.80;;;;;;5056748;28;19944;-52
2023/07/17 02:12:45;;;;;;;;;;;25.20;52.10;;;;;;5057307;28;19929;-52
2023/07/17 02:15:11;;;;;;;;;;;25.20;52.20;;;;;;5055417;28;20023;-52
2023/07/17 02:17:36;;;;;;;;;;;25.10;52.10;;;;;;5057323;28;20334;-51
2023/07/17 02:20:08;;;;;;;;;;;25.10;52.00;;;;;;5056007;28;19912;-52
2023/07/17 02:22:33;;;;;;;;;;;25.10;52.10;;;;;;5063538;28;19924;-51
2023/07/17 02:24:59;;;;;;;;;;;25.20;52.20;;;;;;5054530;28;20339;-51
2023/07/17 02:27:25;;;;;;;;;;;25.10;52.20;;;;;;5051474;28;19921;-52
2023/07/17 02:29:50;;;;;;;;;;;25.10;52.20;;;;;;5051806;28;19916;-52
2023/07/17 02:32:16;;;;;;;;;;;25.10;52.20;;;;;;5050561;28;20383;-51
2023/07/17 02:34:41;;;;;;;;;;;25.20;52.40;;;;;;5056004;28;20426;-51
2023/07/17 02:37:10;;;;;;;;;;;25.10;52.30;;;;;;5050878;28;20518;-52
2023/07/17 02:39:36;;;;;;;;;;;25.10;52.40;;;;;;5051338;28;19912;-52
2023/07/17 02:42:01;;;;;;;;;;;25.10;52.30;;;;;;5054638;28;20034;-52
2023/07/17 02:44:27;;;;;;;;;;;25.10;52.30;;;;;;5057641;28;19913;-52
2023/07/17 02:46:52;;;;;;;;;;;25.10;52.30;;;;;;5057714;28;19958;-52
2023/07/17 02:49:18;;;;;;;;;;;25.10;52.40;;;;;;5063317;28;19912;-52
2023/07/17 02:51:43;;;;;;;;;;;25.10;52.30;;;;;;5057859;28;20480;-52
2023/07/17 02:54:08;;;;;;;;;;;25.10;52.20;;;;;;5068026;28;20292;-52
2023/07/17 02:56:34;;;;;;;;;;;25.10;52.20;;;;;;5049984;28;19994;-52
2023/07/17 02:58:59;;;;;;;;;;;25.10;52.20;;;;;;5053787;28;19912;-51
2023/07/17 03:01:25;;;;;;;;;;;25.10;52.10;;;;;;5061620;28;19956;-52
2023/07/17 03:03:51;;;;;;;;;;;25.10;52.00;;;;;;5056031;28;19913;-51
2023/07/17 03:06:16;;;;;;;;;;;25.10;52.10;;;;;;5050143;28;19990;-52
2023/07/17 03:08:42;;;;;;;;;;;25.00;52.00;;;;;;5051058;28;19913;-51
2023/07/17 03:11:07;;;;;;;;;;;25.00;52.00;;;;;;5050155;28;19952;-51
2023/07/17 03:13:32;;;;;;;;;;;25.00;51.90;;;;;;5067980;28;19916;-52
2023/07/17 03:15:58;;;;;;;;;;;25.00;51.90;;;;;;5051282;28;19936;-52
2023/07/17 03:18:24;;;;;;;;;;;25.00;51.90;;;;;;5052287;28;19917;-52
2023/07/17 03:20:50;;;;;;;;;;;25.00;51.90;;;;;;5056118;28;20652;-51
2023/07/17 03:23:15;;;;;;;;;;;25.00;51.80;;;;;;5051287;28;19912;-51
2023/07/17 03:25:41;;;;;;;;;;;25.00;51.70;;;;;;5057585;28;20261;-52
2023/07/17 03:28:06;;;;;;;;;;;25.00;51.70;;;;;;5051635;28;20428;-52
2023/07/17 03:30:32;;;;;;;;;;;25.00;51.60;;;;;;5055454;28;20409;-52
2023/07/17 03:32:57;;;;;;;;;;;24.90;51.50;;;;;;5058520;28;20369;-52
2023/07/17 03:35:23;;;;;;;;;;;25.00;51.60;;;;;;5058626;28;19939;-52
2023/07/17 03:37:48;;;;;;;;;;;24.90;51.50;;;;;;5056363;28;19920;-51
2023/07/17 03:40:14;;;;;;;;;;;24.90;51.30;;;;;;5052302;28;19927;-52
2023/07/17 03:42:39;;;;;;;;;;;24.90;51.20;;;;;;5059854;28;19913;-51
2023/07/17 03:45:05;;;;;;;;;;;24.90;51.20;;;;;;5054917;28;20015;-52
2023/07/17 03:47:31;;;;;;;;;;;24.90;51.20;;;;;;5060876;28;19966;-52
2023/07/17 03:49:56;;;;;;;;;;;24.90;51.20;;;;;;5059529;28;20376;-52
2023/07/17 03:52:21;;;;;;;;;;;24.90;51.20;;;;;;5059204;28;19917;-52
2023/07/17 03:54:47;;;;;;;;;;;24.90;51.20;;;;;;5048065;28;19956;-52
2023/07/17 03:57:12;;;;;;;;;;;24.90;51.10;;;;;;5052390;28;19932;-53
2023/07/17 03:59:53;;;;;;;;;;;24.90;51.10;;;;;;5061646;28;19932;-52
2023/07/17 04:02:19;;;;;;;;;;;24.90;51.10;;;;;;5058458;28;19920;-52
2023/07/17 04:04:45;;;;;;;;;;;24.80;50.90;;;;;;5057349;28;19959;-52
2023/07/17 04:07:11;;;;;;;;;;;24.90;51.00;;;;;;5057688;28;19913;-52
2023/07/17 04:09:36;;;;;;;;;;;24.90;50.90;;;;;;5056491;28;19924;-51
2023/07/17 04:12:03;;;;;;;;;;;24.90;50.90;;;;;;5058840;28;19912;-51
2023/07/17 04:14:29;;;;;;;;;;;24.90;50.90;;;;;;5060870;28;20029;-52
2023/07/17 04:16:55;;;;;;;;;;;24.90;50.90;;;;;;5057795;28;19917;-52
2023/07/17 04:19:20;;;;;;;;;;;24.90;50.70;;;;;;5055295;28;19920;-52
2023/07/17 04:21:45;;;;;;;;;;;24.80;50.70;;;;;;5058826;28;19917;-52
2023/07/17 04:24:11;;;;;;;;;;;24.80;50.70;;;;;;5054549;28;19920;-53
2023/07/17 04:26:36;;;;;;;;;;;24.80;50.60;;;;;;5058991;28;19920;-52
2023/07/17 04:29:02;;;;;;;;;;;24.80;50.60;;;;;;5059500;28;19986;-52
2023/07/17 04:31:28;;;;;;;;;;;24.80;50.60;;;;;;5060055;28;19919;-52
2023/07/17 04:33:53;;;;;;;;;;;24.80;50.60;;;;;;5067126;28;19917;-53
2023/07/17 04:36:19;;;;;;;;;;;24.80;50.70;;;;;;5032165;28;19948;-52
2023/07/17 04:38:44;;;;;;;;;;;24.80;50.60;;;;;;5051297;28;19912;-52
2023/07/17 04:41:10;;;;;;;;;;;24.80;50.70;;;;;;5058061;28;19917;-52
2023/07/17 04:43:35;;;;;;;;;;;24.80;50.50;;;;;;5060682;28;20361;-53
2023/07/17 04:46:01;;;;;;;;;;;24.80;50.60;;;;;;5061193;28;20007;-52
2023/07/17 04:48:26;;;;;;;;;;;24.70;50.50;;;;;;5059681;28;19919;-52
2023/07/17 04:50:53;;;;;;;;;;;24.80;50.80;;;;;;5058851;28;19963;-52
2023/07/17 04:53:19;;;;;;;;;;;24.70;50.70;;;;;;5059460;28;19947;-52
2023/07/17 04:55:44;;;;;;;;;;;24.70;50.70;;;;;;5061279;28;19916;-52
2023/07/17 04:58:09;;;;;;;;;;;24.70;50.80;;;;;;5059615;28;19913;-52
2023/07/17 05:00:35;;;;;;;;;;;24.60;50.80;;;;;;5056412;28;19959;-52
2023/07/17 05:03:00;;;;;;;;;;;24.60;50.90;;;;;;5055645;28;19913;-53
2023/07/17 05:05:26;;;;;;;;;;;24.60;50.80;;;;;;5062694;28;20314;-52
2023/07/17 05:07:52;;;;;;;;;;;24.70;50.90;;;;;;5057079;28;19913;-52
2023/07/17 05:10:18;;;;;;;;;;;24.60;50.90;;;;;;5069646;28;19925;-52
2023/07/17 05:12:43;;;;;;;;;;;24.70;51.10;;;;;;5068829;28;19974;-53
2023/07/17 05:15:09;;;;;;;;;;;24.60;51.00;;;;;;5059799;28;20371;-52
2023/07/17 05:17:35;;;;;;;;;;;24.60;51.00;;;;;;5055029;28;19916;-52
2023/07/17 05:20:00;;;;;;;;;;;24.60;51.00;;;;;;5057501;28;19920;-52
2023/07/17 05:22:26;;;;;;;;;;;24.70;51.10;;;;;;5054283;28;19920;-52
2023/07/17 05:24:52;;;;;;;;;;;24.60;51.00;;;;;;5053222;28;19928;-52
2023/07/17 05:27:17;;;;;;;;;;;24.60;51.00;;;;;;5051055;28;19924;-52
2023/07/17 05:29:43;;;;;;;;;;;24.60;51.10;;;;;;5048311;28;20467;-52
2023/07/17 05:32:08;;;;;;;;;;;24.60;51.10;;;;;;5056587;28;19925;-52
2023/07/17 05:34:34;;;;;;;;;;;24.60;51.10;;;;;;5054103;28;20396;-52
2023/07/17 05:36:59;;;;;;;;;;;24.60;51.20;;;;;;5056208;28;19916;-52
2023/07/17 05:39:26;;;;;;;;;;;24.60;51.20;;;;;;5049718;28;20035;-52
2023/07/17 05:41:51;;;;;;;;;;;24.60;51.20;;;;;;5053747;28;19932;-53
2023/07/17 05:44:17;;;;;;;;;;;24.60;51.30;;;;;;5052440;28;19912;-52
2023/07/17 05:46:42;;;;;;;;;;;24.60;51.30;;;;;;5054487;28;19928;-52
2023/07/17 05:49:08;;;;;;;;;;;24.60;51.30;;;;;;5061665;28;19962;-52
2023/07/17 05:51:33;;;;;;;;;;;24.60;51.30;;;;;;5055730;28;19920;-52
2023/07/17 05:53:58;;;;;;;;;;;24.60;51.40;;;;;;5053015;28;20007;-52
2023/07/17 05:56:24;;;;;;;;;;;24.60;51.50;;;;;;5048358;28;19959;-52
2023/07/17 05:58:49;;;;;;;;;;;24.60;51.60;;;;;;5055477;28;19912;-52
2023/07/17 06:01:15;;;;;;;;;;;24.60;51.60;;;;;;5059889;28;19917;-52
2023/07/17 06:03:40;;;;;;;;;;;24.60;51.70;;;;;;5055639;28;19916;-53
2023/07/17 06:06:06;;;;;;;;;;;24.60;51.60;;;;;;5056110;28;19924;-52
2023/07/17 06:08:31;;;;;;;;;;;24.60;51.60;;;;;;5055501;28;19921;-52
2023/07/17 06:10:56;;;;;;;;;;;24.60;51.60;;;;;;5049931;28;19917;-52
2023/07/17 06:13:22;;;;;;;;;;;24.60;51.70;;;;;;5054073;28;19927;-52
2023/07/17 06:15:47;;;;;;;;;;;24.60;51.80;;;;;;5054412;28;19916;-51
2023/07/17 06:18:13;;;;;;;;;;;24.60;51.90;;;;;;5050596;28;20810;-52
2023/07/17 06:20:39;;;;;;;;;;;24.50;51.80;;;;;;5061407;28;20369;-52
2023/07/17 06:23:04;;;;;;;;;;;24.50;51.80;;;;;;5052230;28;19913;-52
2023/07/17 06:25:30;;;;;;;;;;;24.50;51.80;;;;;;5053097;28;19993;-52
2023/07/17 06:27:55;;;;;;;;;;;24.50;51.80;;;;;;5052838;28;19921;-52
2023/07/17 06:30:21;;;;;;;;;;;24.50;51.90;;;;;;5055940;28;19921;-52
2023/07/17 06:32:46;;;;;;;;;;;24.50;51.90;;;;;;5056249;28;19920;-52
2023/07/17 06:35:12;;;;;;;;;;;24.50;52.00;;;;;;5048052;28;19928;-52
2023/07/17 06:37:37;;;;;;;;;;;24.50;52.00;;;;;;5048345;28;19967;-52
2023/07/17 06:40:06;;;;;;;;;;;24.50;52.10;;;;;;5051198;28;20354;-52
2023/07/17 06:42:33;;;;;;;;;;;24.50;52.10;;;;;;5048071;28;19923;-52
2023/07/17 06:44:58;;;;;;;;;;;24.50;52.10;;;;;;5048178;28;19927;-52
2023/07/17 06:47:24;;;;;;;;;;;24.50;52.10;;;;;;5049651;28;20404;-52
2023/07/17 06:49:49;;;;;;;;;;;24.50;52.10;;;;;;5051633;28;19917;-52
2023/07/17 06:52:14;;;;;;;;;;;24.50;52.10;;;;;;5047450;28;19913;-51
2023/07/17 06:54:40;;;;;;;;;;;24.50;52.10;;;;;;5050088;28;19913;-51
2023/07/17 06:57:06;;;;;;;;;;;24.50;52.10;;;;;;5044765;28;19977;-52
2023/07/17 06:59:31;;;;;;;;;;;24.50;52.20;;;;;;5050803;28;19920;-52
2023/07/17 07:01:56;;;;;;;;;;;24.50;52.20;;;;;;5042982;28;19920;-53
2023/07/17 07:04:22;;;;;;;;;;;24.50;52.20;;;;;;5056364;28;19920;-54
2023/07/17 07:06:47;;;;;;;;;;;24.50;52.20;;;;;;5058508;28;20368;-53
2023/07/17 07:09:13;;;;;;;;;;;24.50;52.20;;;;;;5050722;28;20012;-52
2023/07/17 07:11:38;;;;;;;;;;;24.50;52.30;;;;;;5048287;28;19920;-54
2023/07/17 07:14:04;;;;;;;;;;;24.50;52.20;;;;;;5062109;28;20392;-53
2023/07/17 07:16:29;;;;;;;;;;;24.50;52.20;;;;;;5056196;28;19921;-53
2023/07/17 07:18:55;;;;;;;;;;;24.40;52.40;;;;;;5052732;28;19925;-52
2023/07/17 07:21:20;;;;;;;;;;;24.30;52.70;;;;;;5054626;28;19974;-52
2023/07/17 07:23:45;;;;;;;;;;;24.30;52.90;;;;;;5055892;28;19916;-54
2023/07/17 07:26:11;;;;;;;;;;;24.30;53.60;;;;;;5054982;28;19959;-54
2023/07/17 07:28:36;;;;;;;;;;;24.20;53.10;;;;;;5061665;28;19920;-54
2023/07/17 07:31:02;;;;;;;;;;;24.20;53.20;;;;;;5052462;28;20321;-54
2023/07/17 07:33:28;;;;;;;;;;;24.20;53.10;;;;;;5056115;28;19919;-53
2023/07/17 07:35:53;;;;;;;;;;;24.10;53.40;;;;;;5057802;28;19920;-54
2023/07/17 07:38:19;;;;;;;;;;;24.10;53.20;;;;;;5062398;28;20284;-53
2023/07/17 07:40:44;;;;;;;;;;;24.10;53.30;;;;;;5055174;28;20014;-52
2023/07/17 07:43:09;;;;;;;;;;;24.10;53.20;;;;;;5059678;28;20024;-52
2023/07/17 07:45:35;;;;;;;;;;;24.10;53.20;;;;;;5055266;28;19932;-52
2023/07/17 07:48:01;;;;;;;;;;;24.20;53.30;;;;;;5058943;28;19920;-53
2023/07/17 07:50:26;;;;;;;;;;;24.20;53.00;;;;;;5059356;28;19962;-53
2023/07/17 07:52:52;;;;;;;;;;;24.20;53.00;;;;;;5060443;28;20400;-53
2023/07/17 07:55:17;;;;;;;;;;;24.20;53.30;;;;;;5057614;28;20394;-53
2023/07/17 07:57:42;;;;;;;;;;;24.10;52.70;;;;;;5060379;28;19913;-52
2023/07/17 08:00:08;;;;;;;;;;;24.20;52.60;;;;;;5056851;28;19908;-52
2023/07/17 08:02:33;;;;;;;;;;;24.20;52.80;;;;;;5067627;28;19935;-53
2023/07/17 08:04:59;;;;;;;;;;;24.00;52.50;;;;;;5068053;28;19912;-53
2023/07/17 08:07:24;;;;;;;;;;;24.10;52.40;;;;;;5060219;28;19952;-53
2023/07/17 08:09:50;;;;;;;;;;;24.10;52.20;;;;;;5054062;28;19908;-52
2023/07/17 08:12:15;;;;;;;;;;;24.20;52.00;;;;;;5053137;28;19913;-53
2023/07/17 08:14:41;;;;;;;;;;;24.30;52.00;;;;;;5061327;28;19912;-52
2023/07/17 08:17:07;;;;;;;;;;;24.30;51.90;;;;;;5058953;28;20365;-52
2023/07/17 08:19:32;;;;;;;;;;;24.30;51.80;;;;;;5058556;28;19913;-51
2023/07/17 08:21:58;;;;;;;;;;;24.30;51.60;;;;;;5054022;28;19924;-53
2023/07/17 08:24:23;;;;;;;;;;;24.30;51.50;;;;;;5061802;28;20416;-52
2023/07/17 08:26:48;;;;;;;;;;;24.30;51.40;;;;;;5052497;28;20369;-53
2023/07/17 08:29:14;;;;;;;;;;;24.40;51.30;;;;;;5057163;28;20297;-53
2023/07/17 08:31:40;;;;;;;;;;;24.40;51.20;;;;;;5052280;28;19960;-53
2023/07/17 08:34:05;;;;;;;;;;;24.50;51.00;;;;;;5060793;28;19913;-53
2023/07/17 08:36:31;;;;;;;;;;;24.50;50.70;;;;;;5056969;28;20383;-53
2023/07/17 08:38:56;;;;;;;;;;;24.50;50.20;;;;;;5055070;28;20309;-53
2023/07/17 08:41:22;;;;;;;;;;;24.40;49.60;;;;;;5056495;28;19942;-54
2023/07/17 08:43:50;;;;;;;;;;;24.40;49.30;;;;;;5051148;28;19919;-53
2023/07/17 08:46:16;;;;;;;;;;;24.40;49.50;;;;;;5053237;28;20282;-54
2023/07/17 08:48:43;;;;;;;;;;;24.40;48.90;;;;;;5050990;28;19938;-53
2023/07/17 08:51:12;;;;;;;;;;;24.50;48.80;;;;;;5051124;28;20613;-54
2023/07/17 08:53:38;;;;;;;;;;;24.50;48.70;;;;;;5049705;28;19913;-54
2023/07/17 08:56:04;;;;;;;;;;;24.60;48.40;;;;;;5050686;28;20019;-53
2023/07/17 08:58:30;;;;;;;;;;;24.60;48.30;;;;;;5054050;28;20039;-52
2023/07/17 09:00:55;;;;;;;;;;;24.60;48.20;;;;;;5049158;28;19928;-55
2023/07/17 09:03:21;;;;;;;;;;;24.60;48.20;;;;;;5049493;28;19920;-53
2023/07/17 09:05:46;;;;;;;;;;;24.60;48.20;;;;;;5053132;28;19912;-53
2023/07/17 09:08:12;;;;;;;;;;;24.60;48.10;;;;;;5048749;28;19960;-53
2023/07/17 09:10:38;;;;;;;;;;;24.60;47.90;;;;;;5054428;28;19917;-52
2023/07/17 09:13:04;;;;;;;;;;;24.60;47.90;;;;;;5051366;28;19959;-52
2023/07/17 09:15:31;;;;;;;;;;;24.70;47.90;;;;;;5049526;28;19919;-53
2023/07/17 09:17:56;;;;;;;;;;;24.70;47.60;;;;;;5052009;28;20005;-53
2023/07/17 09:20:21;;;;;;;;;;;24.70;47.50;;;;;;5049546;28;20049;-53
2023/07/17 09:22:48;;;;;;;;;;;24.70;47.90;;;;;;5049707;28;19929;-53
2023/07/17 09:25:13;;;;;;;;;;;24.70;48.10;;;;;;5048299;28;19919;-55
2023/07/17 09:27:48;;;;;;;;;;;24.70;48.00;;;;;;5048308;28;19917;-54
2023/07/17 09:30:20;;;;;;;;;;;24.70;47.80;;;;;;5051013;28;20037;-53
2023/07/17 09:32:46;;;;;;;;;;;24.70;47.30;;;;;;5045852;28;19921;-56
2023/07/17 09:35:11;;;;;;;;;;;24.70;47.40;;;;;;5054116;28;19913;-54
2023/07/17 09:37:37;;;;;;;;;;;24.70;47.10;;;;;;5046908;28;20290;-54
2023/07/17 09:40:11;;;;;;;;;;;24.80;47.40;;;;;;5048031;28;19998;-53
2023/07/17 09:42:38;;;;;;;;;;;24.70;47.50;;;;;;5056044;28;19959;-53
2023/07/17 09:45:03;;;;;;;;;;;24.70;47.40;;;;;;5051318;28;19920;-54
2023/07/17 09:47:29;;;;;;;;;;;24.70;47.20;;;;;;5049586;28;19925;-54
2023/07/17 09:49:55;;;;;;;;;;;24.70;47.00;;;;;;5055366;28;20496;-54
2023/07/17 09:52:20;;;;;;;;;;;24.70;46.90;;;;;;5043569;28;19913;-53
2023/07/17 09:54:46;;;;;;;;;;;24.70;46.70;;;;;;5057341;28;20050;-54
2023/07/17 09:57:21;;;;;;;;;;;24.80;46.90;;;;;;5057871;28;19912;-53
2023/07/17 09:59:46;;;;;;;;;;;24.70;46.70;;;;;;5054459;28;19912;-52
2023/07/17 10:02:14;;;;;;;;;;;24.80;46.90;;;;;;5058455;28;19970;-54
2023/07/17 10:04:41;;;;;;;;;;;24.80;46.70;;;;;;5052070;28;19912;-53
2023/07/17 10:07:06;;;;;;;;;;;24.80;46.50;;;;;;5051481;28;19916;-54
2023/07/17 10:09:32;;;;;;;;;;;24.80;46.30;;;;;;5052075;28;20288;-53
2023/07/17 10:11:57;;;;;;;;;;;24.90;46.10;;;;;;5062421;28;20392;-52
2023/07/17 10:14:24;;;;;;;;;;;24.90;46.50;;;;;;5054566;28;19917;-52
2023/07/17 10:16:52;;;;;;;;;;;24.90;46.30;;;;;;5058655;28;19916;-51
2023/07/17 10:19:18;;;;;;;;;;;24.90;46.60;;;;;;5060778;28;20009;-52
2023/07/17 10:21:53;;;;;;;;;;;24.90;45.70;;;;;;5051880;28;19947;-53
2023/07/17 10:24:21;;;;;;;;;;;24.90;46.10;;;;;;5055276;28;19923;-53
2023/07/17 10:26:46;;;;;;;;;;;24.90;45.60;;;;;;5065104;28;20336;-53
2023/07/17 10:29:12;;;;;;;;;;;25.00;45.70;;;;;;5056899;28;19912;-52
2023/07/17 10:31:38;;;;;;;;;;;25.00;45.50;;;;;;5052283;28;19919;-53
2023/07/17 10:34:03;;;;;;;;;;;24.90;45.10;;;;;;5051848;28;20274;-52
2023/07/17 10:36:44;;;;;;;;;;;24.80;45.90;;;;;;5050902;28;19943;-52
2023/07/17 10:39:16;;;;;;;;;;;24.80;45.50;;;;;;5053676;28;19917;-54
2023/07/17 10:41:42;;;;;;;;;;;24.70;45.10;;;;;;5052486;28;19920;-51
2023/07/17 10:44:08;;;;;;;;;;;24.70;45.10;;;;;;5057722;28;19991;-52
2023/07/17 10:46:34;;;;;;;;;;;24.70;44.60;;;;;;5057450;28;19920;-52
2023/07/17 10:49:06;;;;;;;;;;;24.70;44.70;;;;;;5063081;28;19921;-52
2023/07/17 10:51:32;;;;;;;;;;;24.60;44.30;;;;;;5056753;28;19916;-51
2023/07/17 10:53:57;;;;;;;;;;;24.60;44.70;;;;;;5054961;28;19917;-54
2023/07/17 10:56:23;;;;;;;;;;;24.60;44.50;;;;;;5059081;28;19919;-53
2023/07/17 10:58:49;;;;;;;;;;;24.60;44.60;;;;;;5057806;28;19916;-52
2023/07/17 11:01:15;;;;;;;;;;;24.60;44.50;;;;;;5051616;28;19981;-52
2023/07/17 11:03:42;;;;;;;;;;;24.60;44.50;;;;;;5055753;28;20347;-52
2023/07/17 11:06:08;;;;;;;;;;;24.60;45.30;;;;;;5050190;28;19979;-52
2023/07/17 11:08:34;;;;;;;;;;;24.70;44.60;;;;;;5050841;28;19956;-52
2023/07/17 11:10:59;;;;;;;;;;;24.70;44.80;;;;;;5054225;28;19924;-53
2023/07/17 11:13:29;;;;;;;;;;;24.70;44.70;;;;;;5056748;28;19912;-52
2023/07/17 11:15:54;;;;;;;;;;;24.70;44.70;;;;;;5058855;28;19920;-53
2023/07/17 11:18:20;;;;;;;;;;;24.70;44.80;;;;;;5057394;28;20373;-52
2023/07/17 11:20:45;;;;;;;;;;;24.70;44.90;;;;;;5056694;28;20293;-53
2023/07/17 11:23:11;;;;;;;;;;;24.70;44.80;;;;;;5053849;28;20121;-52
2023/07/17 11:25:36;;;;;;;;;;;24.70;44.80;;;;;;5062772;28;19913;-52
2023/07/17 11:28:02;;;;;;;;;;;24.70;44.60;;;;;;5055380;28;19920;-52
2023/07/17 11:30:28;;;;;;;;;;;24.60;44.70;;;;;;5068515;28;19920;-53
2023/07/17 11:32:59;;;;;;;;;;;24.70;44.70;;;;;;5064911;28;19917;-52
2023/07/17 11:35:44;;;;;;;;;;;24.70;45.00;;;;;;5049118;28;20297;-52
2023/07/17 11:38:18;;;;;;;;;;;24.70;45.60;;;;;;5049564;28;19924;-52
2023/07/17 11:40:50;;;;;;;;;;;24.70;44.90;;;;;;5056919;28;19959;-52
2023/07/17 11:43:22;;;;;;;;;;;24.70;45.00;;;;;;5054519;28;19935;-52
2023/07/17 11:45:47;;;;;;;;;;;24.70;45.30;;;;;;5060138;28;19956;-52
2023/07/17 11:48:12;;;;;;;;;;;24.70;45.20;;;;;;5060535;28;19954;-52
2023/07/17 11:50:38;;;;;;;;;;;24.60;45.30;;;;;;5055214;28;19913;-52
2023/07/17 11:53:04;;;;;;;;;;;24.70;45.40;;;;;;5053558;28;19913;-52
2023/07/17 11:55:36;;;;;;;;;;;24.60;45.30;;;;;;5058970;28;19924;-52
2023/07/17 11:58:02;;;;;;;;;;;24.60;45.60;;;;;;5059850;28;20289;-52
2023/07/17 12:00:28;;;;;;;;;;;24.60;45.50;;;;;;5058361;28;20385;-52
2023/07/17 12:02:54;;;;;;;;;;;24.60;45.70;;;;;;5064069;28;20176;-53
2023/07/17 12:05:19;;;;;;;;;;;24.60;45.70;;;;;;5066539;28;19951;-53
2023/07/17 12:07:45;;;;;;;;;;;24.70;45.80;;;;;;5054151;28;19909;-53
2023/07/17 12:10:10;;;;;;;;;;;24.70;45.80;;;;;;5058090;28;20414;-53
2023/07/17 12:12:36;;;;;;;;;;;24.70;46.10;;;;;;5070732;28;20087;-53
2023/07/17 12:15:01;;;;;;;;;;;24.70;46.40;;;;;;5065581;28;19913;-52
2023/07/17 12:17:27;;;;;;;;;;;24.70;46.60;;;;;;5056448;28;19909;-52
2023/07/17 12:19:54;;;;;;;;;;;24.60;47.00;;;;;;5055220;28;19920;-52
2023/07/17 12:22:19;;;;;;;;;;;24.50;48.10;;;;;;5052908;28;19917;-52
2023/07/17 12:24:45;;;;;;;;;;;24.50;48.20;;;;;;5072586;28;19916;-51
2023/07/17 12:27:10;;;;;;;;;;;24.50;48.60;;;;;;5065442;28;19913;-52
2023/07/17 12:29:36;;;;;;;;;;;24.50;49.10;;;;;;5054112;28;19909;-52
2023/07/17 12:32:01;;;;;;;;;;;24.50;49.10;;;;;;5065104;28;19959;-52
2023/07/17 12:34:27;;;;;;;;;;;24.50;49.10;;;;;;5063667;28;19970;-52
2023/07/17 12:36:52;;;;;;;;;;;24.60;49.00;;;;;;5054409;28;19924;-52
2023/07/17 12:39:18;;;;;;;;;;;24.60;49.00;;;;;;5059071;28;19917;-53
2023/07/17 12:41:44;;;;;;;;;;;24.60;49.10;;;;;;5057268;28;19994;-52
2023/07/17 12:44:09;;;;;;;;;;;24.60;48.90;;;;;;5053401;28;20393;-52
2023/07/17 12:46:35;;;;;;;;;;;24.70;48.80;;;;;;5053753;28;20004;-53
2023/07/17 12:49:00;;;;;;;;;;;24.60;48.70;;;;;;5057134;28;20301;-52
2023/07/17 12:51:25;;;;;;;;;;;24.60;48.80;;;;;;5064711;28;20140;-52
2023/07/17 12:53:51;;;;;;;;;;;24.60;48.80;;;;;;5048963;28;19919;-51
2023/07/17 12:56:16;;;;;;;;;;;24.60;48.70;;;;;;5056522;28;19913;-53
2023/07/17 12:58:42;;;;;;;;;;;24.70;48.90;;;;;;5054858;28;20427;-52
2023/07/17 13:01:07;;;;;;;;;;;24.70;48.90;;;;;;5061309;28;20268;-53
2023/07/17 13:03:33;;;;;;;;;;;24.70;48.90;;;;;;5052097;28;19913;-53
2023/07/17 13:05:58;;;;;;;;;;;24.70;48.80;;;;;;5057454;28;19912;-52
2023/07/17 13:08:24;;;;;;;;;;;24.60;48.80;;;;;;5055920;28;19931;-53
2023/07/17 13:10:49;;;;;;;;;;;24.70;48.80;;;;;;5057818;28;20377;-53
2023/07/17 13:13:15;;;;;;;;;;;24.70;48.30;;;;;;5062339;28;20305;-52
2023/07/17 13:15:40;;;;;;;;;;;24.70;48.30;;;;;;5055869;28;20288;-52
2023/07/17 13:18:06;;;;;;;;;;;24.60;48.20;;;;;;5064378;28;20007;-52
2023/07/17 13:20:31;;;;;;;;;;;24.60;48.20;;;;;;5060802;28;19917;-52
2023/07/17 13:22:56;;;;;;;;;;;24.60;48.30;;;;;;5056938;28;19930;-52
2023/07/17 13:25:22;;;;;;;;;;;24.50;48.60;;;;;;5068259;28;19909;-52
2023/07/17 13:27:47;;;;;;;;;;;24.50;49.10;;;;;;5060435;28;20376;-52
2023/07/17 13:30:13;;;;;;;;;;;24.50;49.60;;;;;;5065651;28;20365;-52
2023/07/17 13:32:38;;;;;;;;;;;24.50;50.00;;;;;;5064337;28;20290;-52
2023/07/17 13:35:04;;;;;;;;;;;24.50;49.90;;;;;;5058316;28;20369;-52
2023/07/17 13:37:29;;;;;;;;;;;24.50;50.00;;;;;;5056654;28;20292;-52
2023/07/17 13:39:55;;;;;;;;;;;24.60;50.00;;;;;;5071603;28;20270;-53
2023/07/17 13:42:20;;;;;;;;;;;24.60;50.20;;;;;;5054928;28;19947;-52
2023/07/17 13:44:46;;;;;;;;;;;24.60;50.30;;;;;;5052822;28;19920;-52
2023/07/17 13:47:11;;;;;;;;;;;24.60;50.40;;;;;;5049433;28;19920;-52
2023/07/17 13:49:37;;;;;;;;;;;24.60;50.60;;;;;;5052534;28;19919;-51
2023/07/17 13:52:02;;;;;;;;;;;24.60;50.70;;;;;;5054914;28;19951;-52
2023/07/17 13:54:28;;;;;;;;;;;24.60;50.60;;;;;;5058848;28;20392;-52
2023/07/17 13:56:53;;;;;;;;;;;24.60;51.00;;;;;;5058159;28;20751;-52
2023/07/17 13:59:19;;;;;;;;;;;24.50;51.20;;;;;;5053600;28;20319;-52
2023/07/17 14:01:44;;;;;;;;;;;24.50;51.30;;;;;;5055373;28;19979;-52
2023/07/17 14:04:10;;;;;;;;;;;24.50;51.30;;;;;;5053429;28;19920;-51
2023/07/17 14:06:35;;;;;;;;;;;24.40;51.30;;;;;;5066517;28;19912;-51
2023/07/17 14:09:01;;;;;;;;;;;24.40;51.30;;;;;;5069390;28;19948;-51